Time;durP1;ratioP1;P1;durP2;ratioP2;P2;SDS_P1;SDS_P2;PMS_P1;PMS_P2;Temp;Humidity;BMP_temperature;BMP_pressure;BME280_temperature;BME280_humidity;BME280_pressure;Samples;Min_cycle;Max_cycle;Signal;HPM_P1;HPM_P2
2023/03/08 00:01:23;;;;;;;31.20;16.20;;;;;;;2.15;80.73;94424.85;106741;1275;24035;-65
2023/03/08 00:03:56;;;;;;;29.90;15.70;;;;;;;2.15;80.35;94423.98;106745;1275;22807;-65
2023/03/08 00:06:26;;;;;;;19.70;10.70;;;;;;;2.20;80.36;94416.51;106907;1275;24084;-65
2023/03/08 00:08:56;;;;;;;21.70;11.70;;;;;;;2.25;80.44;94410.23;106760;1275;22727;-65
2023/03/08 00:11:25;;;;;;;18.50;9.90;;;;;;;2.28;80.73;94407.27;106757;1275;22525;-65
2023/03/08 00:13:54;;;;;;;17.60;9.70;;;;;;;2.33;81.12;94397.34;106655;1275;24435;-65
2023/03/08 00:16:22;;;;;;;16.70;9.50;;;;;;;2.40;81.53;94398.70;106834;1275;22772;-65
2023/03/08 00:18:50;;;;;;;16.60;9.30;;;;;;;2.46;81.89;94394.14;106873;1254;22641;-65
2023/03/08 00:21:19;;;;;;;13.80;7.90;;;;;;;2.47;82.24;94393.79;106678;1275;26607;-65
2023/03/08 00:23:47;;;;;;;15.60;8.60;;;;;;;2.50;82.42;94391.34;106672;1275;22511;-65
2023/03/08 00:26:15;;;;;;;12.00;6.10;;;;;;;2.54;82.22;94391.65;106650;1275;22787;-66
2023/03/08 00:28:45;;;;;;;6.30;4.60;;;;;;;2.61;82.19;94377.38;106699;1275;22602;-65
2023/03/08 00:31:13;;;;;;;9.30;5.80;;;;;;;2.63;82.29;94365.55;106657;1275;24047;-65
2023/03/08 00:33:41;;;;;;;14.30;9.40;;;;;;;2.62;82.73;94366.77;106593;1275;25386;-65
2023/03/08 00:36:19;;;;;;;29.60;17.00;;;;;;;2.62;82.66;94360.18;106588;1275;25332;-66
2023/03/08 00:38:49;;;;;;;16.60;9.40;;;;;;;2.67;82.96;94363.62;106757;1275;24202;-65
2023/03/08 00:41:18;;;;;;;27.80;15.90;;;;;;;2.71;83.06;94359.23;106535;1275;26647;-66
2023/03/08 00:43:47;;;;;;;22.40;12.00;;;;;;;2.80;82.89;94359.69;106671;1275;22511;-66
2023/03/08 00:46:15;;;;;;;19.10;11.10;;;;;;;2.89;82.87;94358.38;106705;1275;23885;-65
2023/03/08 00:48:45;;;;;;;7.50;4.80;;;;;;;2.95;82.79;94356.94;106841;1275;22533;-65
2023/03/08 00:51:16;;;;;;;7.60;4.40;;;;;;;3.03;82.53;94363.13;106994;1275;25395;-65
2023/03/08 00:53:47;;;;;;;7.90;5.10;;;;;;;3.14;82.38;94363.88;107016;1275;22600;-65
2023/03/08 00:56:15;;;;;;;7.70;3.70;;;;;;;3.17;82.16;94364.02;106909;1275;22533;-65
2023/03/08 00:58:44;;;;;;;18.20;11.30;;;;;;;3.23;82.98;94368.32;106578;1275;22525;-65
2023/03/08 01:01:15;;;;;;;42.50;23.20;;;;;;;3.16;82.91;94371.15;106726;1275;22528;-64
2023/03/08 01:03:46;;;;;;;39.30;22.20;;;;;;;2.96;83.59;94369.26;106630;1275;25329;-65
2023/03/08 01:06:14;;;;;;;37.90;22.80;;;;;;;2.86;83.85;94370.22;106624;1275;23923;-65
2023/03/08 01:08:43;;;;;;;43.70;25.30;;;;;;;2.90;83.40;94374.52;106759;1275;25485;-65
2023/03/08 01:11:20;;;;;;;37.70;21.80;;;;;;;2.96;83.76;94374.30;106716;1252;22571;-64
2023/03/08 01:13:50;;;;;;;24.10;13.70;;;;;;;3.03;83.95;94381.70;106573;1275;22542;-65
2023/03/08 01:16:21;;;;;;;18.50;10.00;;;;;;;3.06;84.28;94386.02;106698;1275;22559;-65
2023/03/08 01:18:51;;;;;;;15.80;8.70;;;;;;;3.01;83.62;94387.98;106636;1275;25370;-65
2023/03/08 01:21:21;;;;;;;11.70;6.80;;;;;;;3.00;83.10;94388.52;106747;1275;25318;-65
2023/03/08 01:23:49;;;;;;;11.30;7.70;;;;;;;3.02;83.25;94391.09;106617;1275;25383;-64
2023/03/08 01:26:20;;;;;;;13.50;7.90;;;;;;;3.08;83.13;94388.77;106673;1272;24304;-64
2023/03/08 01:28:50;;;;;;;23.10;14.10;;;;;;;3.10;83.33;94380.41;106700;1275;24196;-64
2023/03/08 01:31:24;;;;;;;23.20;14.30;;;;;;;3.09;83.15;94374.54;106727;1275;24260;-65
2023/03/08 01:33:54;;;;;;;20.00;12.70;;;;;;;3.06;83.27;94372.48;106558;1275;24862;-64
2023/03/08 01:36:24;;;;;;;20.60;10.90;;;;;;;3.03;83.27;94373.18;106776;1275;22678;-65
2023/03/08 01:38:53;;;;;;;15.50;9.60;;;;;;;3.02;83.01;94370.06;106670;1275;22782;-65
2023/03/08 01:41:25;;;;;;;28.20;14.70;;;;;;;3.01;82.98;94368.87;106518;1254;22637;-65
2023/03/08 01:43:54;;;;;;;20.90;12.30;;;;;;;2.99;83.76;94373.92;106851;1275;22532;-65
2023/03/08 01:46:28;;;;;;;18.20;10.30;;;;;;;2.99;83.67;94379.13;106889;1275;24273;-65
2023/03/08 01:49:08;;;;;;;13.20;7.20;;;;;;;3.03;83.67;94381.00;106564;1275;25498;-65
2023/03/08 01:51:42;;;;;;;18.30;10.30;;;;;;;3.02;84.48;94379.64;106712;1275;24371;-65
2023/03/08 01:54:18;;;;;;;27.90;16.60;;;;;;;3.02;85.83;94386.74;106649;1275;25427;-65
2023/03/08 01:56:49;;;;;;;24.20;15.00;;;;;;;3.03;86.15;94388.83;106640;1275;26742;-65
2023/03/08 01:59:21;;;;;;;22.20;13.80;;;;;;;2.99;87.19;94395.30;106670;1269;24148;-65
2023/03/08 02:01:49;;;;;;;18.50;13.20;;;;;;;2.99;86.18;94398.06;106588;1275;25334;-65
2023/03/08 02:04:19;;;;;;;20.20;11.40;;;;;;;3.01;86.07;94390.58;106713;1275;22546;-65
2023/03/08 02:06:47;;;;;;;21.50;13.20;;;;;;;3.00;87.85;94381.21;106699;1275;22679;-65
2023/03/08 02:09:19;;;;;;;23.70;13.70;;;;;;;3.01;87.10;94371.64;106637;1275;22640;-65
2023/03/08 02:11:48;;;;;;;18.90;11.30;;;;;;;3.07;86.77;94374.38;106800;1275;22785;-65
2023/03/08 02:14:17;;;;;;;21.70;12.90;;;;;;;3.09;86.48;94384.42;106723;1275;25493;-65
2023/03/08 02:16:48;;;;;;;20.90;13.20;;;;;;;3.19;86.91;94388.50;106623;1275;25438;-65
2023/03/08 02:19:26;;;;;;;17.20;12.40;;;;;;;3.29;87.00;94380.59;106649;1275;22582;-66
2023/03/08 02:21:54;;;;;;;20.20;11.70;;;;;;;3.26;86.94;94375.23;106585;1275;25204;-66
2023/03/08 02:24:23;;;;;;;19.20;11.90;;;;;;;3.24;86.74;94375.77;106598;1275;22517;-66
2023/03/08 02:27:00;;;;;;;17.70;11.50;;;;;;;3.27;87.35;94370.00;106678;1275;22535;-67
2023/03/08 02:29:28;;;;;;;18.20;11.10;;;;;;;3.25;88.09;94364.29;106680;1270;22792;-66
2023/03/08 02:31:56;;;;;;;13.80;9.10;;;;;;;3.24;88.27;94362.05;106674;1275;22598;-66
2023/03/08 02:34:24;;;;;;;13.70;8.60;;;;;;;3.26;87.38;94372.10;106942;1275;25211;-66
2023/03/08 02:36:53;;;;;;;8.00;5.10;;;;;;;3.33;87.77;94376.55;106877;1275;25466;-66
2023/03/08 02:39:21;;;;;;;10.40;6.40;;;;;;;3.40;87.76;94371.25;106787;1275;25460;-66
2023/03/08 02:41:49;;;;;;;10.40;7.60;;;;;;;3.49;88.25;94367.16;106873;1275;26663;-66
2023/03/08 02:44:17;;;;;;;19.80;11.50;;;;;;;3.56;88.39;94367.43;106677;1275;25485;-66
2023/03/08 02:46:45;;;;;;;8.10;5.90;;;;;;;3.59;87.46;94375.23;106673;1275;25309;-66
2023/03/08 02:49:14;;;;;;;10.30;5.20;;;;;;;3.56;87.08;94379.25;106634;1275;22921;-66
2023/03/08 02:51:42;;;;;;;8.70;4.70;;;;;;;3.66;87.92;94381.94;106639;1275;22609;-66
2023/03/08 02:54:10;;;;;;;14.70;8.60;;;;;;;3.77;87.77;94380.41;106667;1275;23017;-66
2023/03/08 02:56:38;;;;;;;15.50;11.30;;;;;;;3.83;87.56;94384.34;106659;1275;24367;-65
2023/03/08 02:59:07;;;;;;;14.70;9.10;;;;;;;3.84;87.28;94386.05;106763;1275;24384;-66
2023/03/08 03:01:36;;;;;;;14.00;8.90;;;;;;;3.81;86.98;94369.57;106800;1275;22828;-66
2023/03/08 03:04:05;;;;;;;13.10;9.00;;;;;;;3.80;87.18;94365.59;106641;1275;25465;-66
2023/03/08 03:06:34;;;;;;;10.50;7.50;;;;;;;3.81;87.15;94361.40;106656;1275;24381;-66
2023/03/08 03:09:07;;;;;;;12.20;7.90;;;;;;;3.83;87.32;94364.15;106632;1275;22610;-66
2023/03/08 03:11:36;;;;;;;11.40;7.30;;;;;;;3.90;87.59;94364.77;106601;1275;22793;-66
2023/03/08 03:14:03;;;;;;;11.10;7.40;;;;;;;3.87;86.62;94365.14;106605;1275;22737;-66
2023/03/08 03:16:36;;;;;;;10.50;7.40;;;;;;;3.79;86.25;94366.46;106666;1275;25440;-66
2023/03/08 03:19:04;;;;;;;11.40;7.30;;;;;;;3.73;86.56;94361.66;106632;1275;24356;-66
2023/03/08 03:21:33;;;;;;;11.00;7.80;;;;;;;3.66;86.70;94361.92;106642;1275;23722;-66
2023/03/08 03:24:01;;;;;;;9.60;6.70;;;;;;;3.56;86.68;94363.61;106596;1275;22517;-66
2023/03/08 03:26:50;;;;;;;10.20;6.80;;;;;;;3.51;86.67;94366.10;106832;1275;25512;-66
2023/03/08 03:29:18;;;;;;;9.90;6.30;;;;;;;3.48;86.23;94367.15;106705;1275;22633;-65
2023/03/08 03:31:49;;;;;;;6.50;4.40;;;;;;;3.44;86.12;94370.00;106624;1266;22650;-65
2023/03/08 03:34:18;;;;;;;5.20;4.30;;;;;;;3.34;86.17;94368.38;106584;1275;24348;-66
2023/03/08 03:36:47;;;;;;;5.60;4.20;;;;;;;3.28;86.14;94369.48;106697;1275;24564;-66
2023/03/08 03:39:15;;;;;;;7.20;4.70;;;;;;;3.21;86.30;94373.53;106720;1275;24057;-66
2023/03/08 03:41:44;;;;;;;4.00;3.00;;;;;;;3.19;86.27;94373.56;106671;1275;22628;-66
2023/03/08 03:44:13;;;;;;;9.70;5.40;;;;;;;3.14;86.30;94373.80;106703;1275;25214;-66
2023/03/08 03:46:43;;;;;;;6.40;3.50;;;;;;;3.09;86.26;94384.09;106841;1275;22517;-66
2023/03/08 03:49:12;;;;;;;6.50;4.20;;;;;;;3.05;86.09;94379.27;106641;1275;22530;-66
2023/03/08 03:51:42;;;;;;;4.90;3.80;;;;;;;3.04;86.36;94386.21;106676;1275;25469;-66
2023/03/08 03:54:14;;;;;;;7.70;3.60;;;;;;;3.04;86.63;94386.05;106699;1275;22642;-66
2023/03/08 03:56:44;;;;;;;7.50;3.90;;;;;;;2.98;86.80;94382.80;106596;1275;23423;-66
2023/03/08 03:59:12;;;;;;;4.90;3.70;;;;;;;2.98;87.05;94387.15;106871;1275;22511;-66
2023/03/08 04:01:41;;;;;;;5.00;3.80;;;;;;;3.03;87.64;94394.55;106570;1275;22594;-66
2023/03/08 04:04:22;;;;;;;34.00;19.50;;;;;;;3.06;88.04;94391.07;106585;1275;22622;-66
2023/03/08 04:06:52;;;;;;;8.90;6.20;;;;;;;3.12;87.91;94388.91;106606;1275;22513;-66
2023/03/08 04:09:22;;;;;;;5.00;4.10;;;;;;;3.17;87.56;94388.01;106655;1275;24058;-66
2023/03/08 04:12:01;;;;;;;12.90;9.20;;;;;;;3.17;88.29;94386.27;106648;1275;22513;-66
2023/03/08 04:14:29;;;;;;;6.60;3.80;;;;;;;3.20;88.45;94390.23;106996;1275;25214;-66
2023/03/08 04:16:58;;;;;;;8.10;4.60;;;;;;;3.19;88.20;94395.63;106738;1275;24560;-66
2023/03/08 04:19:31;;;;;;;6.80;3.80;;;;;;;3.22;88.63;94385.52;106655;1275;22878;-66
2023/03/08 04:22:00;;;;;;;4.00;2.90;;;;;;;3.24;88.18;94386.88;106734;1275;22607;-66
2023/03/08 04:24:33;;;;;;;3.70;2.90;;;;;;;3.26;88.11;94389.14;106784;1275;22997;-66
2023/03/08 04:27:03;;;;;;;44.10;25.10;;;;;;;3.25;88.53;94390.88;106621;1275;25606;-65
2023/03/08 04:29:32;;;;;;;34.10;17.80;;;;;;;3.29;88.71;94394.67;106601;1275;25319;-66
2023/03/08 04:32:01;;;;;;;166.90;122.70;;;;;;;3.29;88.91;94394.67;107026;1275;23910;-66
2023/03/08 04:34:38;;;;;;;31.40;19.90;;;;;;;3.36;88.93;94399.46;106791;1275;25395;-66
2023/03/08 04:37:09;;;;;;;39.20;27.20;;;;;;;3.40;88.80;94393.34;106934;1275;24015;-66
2023/03/08 04:39:38;;;;;;;28.70;17.90;;;;;;;3.42;88.38;94392.79;106997;1275;24234;-66
2023/03/08 04:42:06;;;;;;;60.20;25.40;;;;;;;3.49;88.60;94390.12;106890;1263;24213;-65
2023/03/08 04:44:36;;;;;;;90.90;32.70;;;;;;;3.51;88.28;94394.27;107027;1275;23856;-64
2023/03/08 04:47:04;;;;;;;86.50;38.00;;;;;;;3.46;88.52;94392.74;106988;1275;25194;-67
2023/03/08 04:49:39;;;;;;;108.80;43.00;;;;;;;3.43;88.68;94393.30;106940;1275;25259;-68
2023/03/08 04:52:07;;;;;;;62.10;30.10;;;;;;;3.48;89.31;94400.73;106574;1275;25319;-68
2023/03/08 04:54:37;;;;;;;58.60;25.60;;;;;;;3.56;89.62;94392.48;106810;1275;23881;-69
2023/03/08 04:57:13;;;;;;;48.50;21.70;;;;;;;3.62;89.19;94393.10;106583;1275;26696;-68
2023/03/08 04:59:43;;;;;;;74.80;34.00;;;;;;;3.61;88.44;94388.95;106882;1275;25259;-66
2023/03/08 05:02:12;;;;;;;40.80;21.30;;;;;;;3.60;88.43;94391.73;106710;1275;24354;-67
2023/03/08 05:04:40;;;;;;;33.70;16.80;;;;;;;3.62;88.41;94394.31;106675;1275;25331;-68
2023/03/08 05:07:08;;;;;;;9.30;5.10;;;;;;;3.66;88.86;94394.63;106587;1275;22629;-67
2023/03/08 05:09:37;;;;;;;22.20;12.20;;;;;;;3.68;88.25;94393.02;106579;1275;26630;-68
2023/03/08 05:12:06;;;;;;;7.10;4.60;;;;;;;3.64;88.01;94398.48;106588;1275;22798;-68
2023/03/08 05:14:44;;;;;;;6.40;4.00;;;;;;;3.66;88.41;94407.83;106647;1275;22528;-67
2023/03/08 05:17:12;;;;;;;6.30;4.30;;;;;;;3.62;87.72;94414.67;106591;1275;25548;-67
2023/03/08 05:19:41;;;;;;;8.00;3.70;;;;;;;3.59;87.88;94415.40;106601;1266;22632;-68
2023/03/08 05:22:09;;;;;;;55.10;33.70;;;;;;;3.59;88.84;94407.73;106704;1275;22527;-68
2023/03/08 05:24:42;;;;;;;;;;;;;;;3.57;88.71;94416.98;106669;1275;24246;-68
2023/03/08 05:27:11;;;;;;;43.40;25.70;;;;;;;3.64;88.75;94420.02;106655;1275;22511;-67
2023/03/08 05:29:40;;;;;;;64.20;37.20;;;;;;;3.68;88.86;94426.06;106636;1275;22520;-68
2023/03/08 05:32:12;;;;;;;22.60;13.20;;;;;;;3.70;88.97;94429.86;106870;1266;22646;-68
2023/03/08 05:34:41;;;;;;;17.70;11.70;;;;;;;3.76;88.50;94428.08;106894;1275;25329;-68
2023/03/08 05:37:13;;;;;;;19.70;12.50;;;;;;;3.82;88.38;94427.13;106940;1275;24245;-68
2023/03/08 05:39:42;;;;;;;6.00;4.10;;;;;;;3.89;88.35;94432.96;106736;1275;25320;-68
2023/03/08 05:42:22;;;;;;;16.50;9.20;;;;;;;3.96;88.31;94442.46;106587;1275;24205;-67
2023/03/08 05:44:50;;;;;;;11.40;5.20;;;;;;;4.00;88.51;94454.77;106642;1275;22652;-68
2023/03/08 05:47:23;;;;;;;9.10;5.80;;;;;;;4.06;89.21;94466.02;106728;1275;22642;-68
2023/03/08 05:49:51;;;;;;;10.00;4.80;;;;;;;4.09;89.05;94464.92;106698;1275;24193;-68
2023/03/08 05:52:20;;;;;;;9.90;5.80;;;;;;;4.11;88.80;94466.45;106627;1275;24253;-68
2023/03/08 05:54:49;;;;;;;26.00;12.60;;;;;;;4.13;87.96;94470.45;106627;1275;24265;-68
2023/03/08 05:57:18;;;;;;;7.10;3.20;;;;;;;4.18;87.14;94470.72;106632;1275;22534;-66
2023/03/08 05:59:47;;;;;;;15.50;11.70;;;;;;;4.27;87.27;94466.29;106835;1275;22517;-68
2023/03/08 06:02:17;;;;;;;10.80;6.90;;;;;;;4.34;87.03;94465.83;106640;1275;22778;-68
2023/03/08 06:04:51;;;;;;;4.40;3.10;;;;;;;4.41;86.14;94459.31;106646;1275;22537;-68
2023/03/08 06:07:21;;;;;;;4.80;3.20;;;;;;;4.44;86.26;94463.10;106633;1275;24367;-71
2023/03/08 06:09:55;;;;;;;3.50;2.80;;;;;;;4.44;85.43;94462.76;106586;1275;22758;-70
2023/03/08 06:12:24;;;;;;;5.30;2.90;;;;;;;4.48;85.87;94464.60;106916;1275;25197;-70
2023/03/08 06:14:55;;;;;;;4.90;3.20;;;;;;;4.56;86.50;94466.94;106436;1275;23358;-66
2023/03/08 06:17:25;;;;;;;6.40;3.20;;;;;;;4.61;86.55;94468.63;106571;1275;24371;-70
2023/03/08 06:19:54;;;;;;;6.10;3.30;;;;;;;4.65;86.49;94471.37;106663;1275;25636;-70
2023/03/08 06:22:22;;;;;;;6.70;3.30;;;;;;;4.67;86.44;94472.71;106505;1275;24199;-73
2023/03/08 06:24:51;;;;;;;6.60;4.30;;;;;;;4.63;86.25;94475.55;106630;1274;24258;-76
2023/03/08 06:27:24;;;;;;;6.40;3.50;;;;;;;4.66;86.44;94474.64;106618;1274;24032;-72
2023/03/08 06:29:56;;;;;;;4.10;3.10;;;;;;;4.68;86.53;94476.52;106754;1274;25581;-71
2023/03/08 06:32:24;;;;;;;6.30;3.10;;;;;;;4.69;86.31;94477.21;106771;1274;24174;-70
2023/03/08 06:34:53;;;;;;;11.20;6.20;;;;;;;4.72;86.42;94478.75;106717;1274;24241;-73
2023/03/08 06:37:23;;;;;;;6.50;3.60;;;;;;;4.71;86.39;94478.23;106650;1272;22516;-70
2023/03/08 06:39:52;;;;;;;4.20;3.10;;;;;;;4.73;86.52;94483.42;106895;1275;25391;-71
2023/03/08 06:42:20;;;;;;;6.00;4.50;;;;;;;4.72;86.19;94479.09;106823;1275;25522;-68
2023/03/08 06:45:12;;;;;;;4.30;3.10;;;;;;;4.68;85.92;94471.30;106692;1275;22521;-69
2023/03/08 06:47:41;;;;;;;7.30;3.50;;;;;;;4.64;85.99;94477.63;106682;1275;23880;-69
2023/03/08 06:50:10;;;;;;;6.10;3.90;;;;;;;4.65;86.46;94489.11;106895;1275;22522;-72
2023/03/08 06:52:40;;;;;;;10.90;5.90;;;;;;;4.66;86.25;94491.02;107011;1275;24058;-71
2023/03/08 06:55:09;;;;;;;7.90;4.60;;;;;;;4.62;86.24;94492.98;106995;1275;25214;-75
2023/03/08 06:57:37;;;;;;;8.00;4.80;;;;;;;4.58;86.31;94499.66;106769;1275;22527;-68
2023/03/08 07:00:08;;;;;;;9.80;5.00;;;;;;;4.57;86.59;94501.59;106620;1275;24334;-68
2023/03/08 07:02:36;;;;;;;10.80;5.20;;;;;;;4.57;86.73;94501.08;106686;1275;22638;-72
2023/03/08 07:05:05;;;;;;;40.30;23.40;;;;;;;4.58;86.71;94502.45;106772;1275;22517;-69
2023/03/08 07:07:38;;;;;;;19.90;9.50;;;;;;;4.60;86.75;94513.59;106887;1275;22518;-67
2023/03/08 07:10:09;;;;;;;11.40;6.90;;;;;;;4.62;87.14;94511.63;106611;1275;25461;-66
2023/03/08 07:12:39;;;;;;;42.90;25.20;;;;;;;4.64;87.76;94513.86;106646;1275;22525;-68
2023/03/08 07:15:09;;;;;;;51.20;36.30;;;;;;;4.69;88.19;94513.96;106684;1275;25201;-72
2023/03/08 07:17:37;;;;;;;39.90;25.70;;;;;;;4.77;88.19;94516.48;106751;1275;24006;-72
2023/03/08 07:20:06;;;;;;;63.30;39.50;;;;;;;4.87;88.08;94519.13;106731;1275;22521;-71
2023/03/08 07:22:36;;;;;;;54.20;35.60;;;;;;;4.97;88.22;94516.89;106739;1275;24174;-72
2023/03/08 07:25:04;;;;;;;55.60;35.20;;;;;;;5.05;87.94;94517.64;106659;1275;22518;-71
2023/03/08 07:27:33;;;;;;;53.00;33.40;;;;;;;5.13;87.72;94515.96;106931;1275;24230;-69
2023/03/08 07:30:02;;;;;;;29.00;17.90;;;;;;;5.27;88.02;94527.61;106924;1275;25419;-70
2023/03/08 07:32:30;;;;;;;43.70;29.00;;;;;;;5.39;88.01;94520.61;106963;1275;22521;-71
2023/03/08 07:34:58;;;;;;;122.50;66.20;;;;;;;5.53;88.43;94523.88;106684;1275;25393;-69
2023/03/08 07:37:26;;;;;;;88.60;48.90;;;;;;;5.69;88.63;94525.02;106637;1275;22635;-69
2023/03/08 07:39:55;;;;;;;19.80;12.90;;;;;;;5.83;88.32;94533.83;106992;1266;22528;-69
2023/03/08 07:42:24;;;;;;;27.40;17.50;;;;;;;5.83;86.47;94526.86;106183;1275;626053;-68
2023/03/08 07:44:55;;;;;;;24.90;17.10;;;;;;;5.82;86.59;94526.88;106508;1275;25406;-69
2023/03/08 07:47:23;;;;;;;29.50;16.60;;;;;;;5.91;87.07;94529.02;106552;1275;22543;-68
2023/03/08 07:49:52;;;;;;;34.60;20.40;;;;;;;5.95;86.54;94530.02;106550;1275;23002;-68
2023/03/08 07:52:26;;;;;;;39.50;25.10;;;;;;;5.95;86.34;94530.34;106570;1275;25384;-68
2023/03/08 07:54:54;;;;;;;;;;;;;;;6.02;86.52;94529.89;106595;1275;23748;-69
2023/03/08 07:57:23;;;;;;;33.50;18.90;;;;;;;6.06;85.35;94531.20;106778;1275;22784;-67
2023/03/08 07:59:51;;;;;;;13.30;8.60;;;;;;;6.11;85.20;94534.26;106585;1275;24269;-66
2023/03/08 08:02:21;;;;;;;14.00;9.90;;;;;;;6.21;85.25;94530.41;106545;1275;24314;-70
2023/03/08 08:04:49;;;;;;;6.90;4.30;;;;;;;6.26;84.08;94525.23;106702;1275;22637;-67
2023/03/08 08:07:17;;;;;;;6.80;4.20;;;;;;;6.45;80.65;94525.05;106599;1275;26509;-68
2023/03/08 08:09:46;;;;;;;9.40;4.90;;;;;;;6.73;80.64;94524.66;106733;1274;22511;-68
2023/03/08 08:12:14;;;;;;;5.60;3.90;;;;;;;7.08;80.98;94524.43;106654;1274;22531;-68
2023/03/08 08:14:42;;;;;;;8.40;5.80;;;;;;;7.35;80.42;94525.23;106847;1263;24384;-69
2023/03/08 08:17:11;;;;;;;9.30;5.20;;;;;;;7.52;79.87;94520.08;106965;1274;23019;-67
2023/03/08 08:19:39;;;;;;;9.90;5.70;;;;;;;7.61;77.50;94517.77;106744;1274;22529;-67
2023/03/08 08:22:07;;;;;;;8.50;4.70;;;;;;;7.67;77.00;94520.77;106640;1274;22587;-68
2023/03/08 08:24:36;;;;;;;7.50;4.60;;;;;;;7.72;73.35;94513.64;106771;1274;24323;-68
2023/03/08 08:27:04;;;;;;;6.70;4.50;;;;;;;7.78;73.97;94508.23;106787;1274;25210;-67
2023/03/08 08:29:33;;;;;;;5.80;3.80;;;;;;;7.83;73.44;94509.68;106773;1274;24260;-68
2023/03/08 08:32:03;;;;;;;7.70;5.60;;;;;;;7.86;72.52;94509.44;106856;1257;24225;-68
2023/03/08 08:34:31;;;;;;;6.60;4.40;;;;;;;8.03;72.70;94516.54;106763;1274;24350;-67
2023/03/08 08:36:59;;;;;;;6.60;5.30;;;;;;;8.16;71.35;94516.55;106761;1274;24384;-67
2023/03/08 08:39:27;;;;;;;5.70;4.10;;;;;;;8.19;71.08;94529.25;106673;1274;22922;-68
2023/03/08 08:41:56;;;;;;;9.40;4.00;;;;;;;8.02;68.48;94527.06;106885;1274;22540;-68
2023/03/08 08:44:24;;;;;;;8.30;4.20;;;;;;;8.07;69.20;94527.83;106807;1274;22967;-68
2023/03/08 08:46:52;;;;;;;6.70;4.10;;;;;;;8.12;69.17;94531.70;106766;1274;25333;-71
2023/03/08 08:49:21;;;;;;;6.90;4.20;;;;;;;8.19;68.93;94535.20;106742;1274;25380;-71
2023/03/08 08:51:49;;;;;;;11.10;4.20;;;;;;;8.16;67.60;94534.23;106776;1274;22521;-69
2023/03/08 08:54:17;;;;;;;8.40;4.60;;;;;;;8.08;67.78;94539.34;106772;1274;24330;-67
2023/03/08 08:56:46;;;;;;;6.30;4.10;;;;;;;8.01;67.63;94540.59;108781;1274;25308;-68
2023/03/08 08:59:15;;;;;;;7.70;5.50;;;;;;;7.95;68.49;94546.85;106620;1274;22533;-65
2023/03/08 09:01:43;;;;;;;13.10;7.20;;;;;;;7.98;69.62;94546.25;106974;1274;22696;-67
2023/03/08 09:04:12;;;;;;;11.20;4.70;;;;;;;8.02;68.99;94552.47;106726;1274;25364;-67
2023/03/08 09:06:41;;;;;;;6.80;4.90;;;;;;;7.97;68.30;94553.99;106938;1274;22655;-66
2023/03/08 09:09:09;;;;;;;6.70;4.40;;;;;;;7.99;68.60;94562.02;106986;1274;24225;-67
2023/03/08 09:11:37;;;;;;;7.80;5.30;;;;;;;8.00;67.77;94570.71;106842;1274;23481;-66
2023/03/08 09:14:22;;;;;;;8.40;5.40;;;;;;;7.93;67.88;94567.91;106996;1274;23081;-66
2023/03/08 09:16:51;;;;;;;9.70;5.00;;;;;;;7.90;67.72;94572.73;106760;1274;25229;-67
2023/03/08 09:19:20;;;;;;;11.70;7.10;;;;;;;7.83;67.62;94565.38;106877;1274;25339;-67
2023/03/08 09:21:48;;;;;;;6.60;4.70;;;;;;;7.78;67.86;94570.92;106884;1274;24250;-68
2023/03/08 09:24:16;;;;;;;8.20;4.80;;;;;;;7.71;67.90;94573.34;106841;1274;22516;-68
2023/03/08 09:26:44;;;;;;;6.40;4.10;;;;;;;7.63;68.27;94575.48;106739;1274;26512;-68
2023/03/08 09:29:12;;;;;;;6.50;4.70;;;;;;;7.61;68.88;94577.61;106779;1274;22651;-67
2023/03/08 09:31:42;;;;;;;10.00;4.60;;;;;;;7.54;68.61;94587.23;106669;1274;22515;-68
2023/03/08 09:34:13;;;;;;;9.80;4.80;;;;;;;7.38;69.33;94596.69;106778;1274;25271;-67
2023/03/08 09:36:42;;;;;;;8.50;3.80;;;;;;;7.25;69.35;94594.52;106742;1274;22520;-68
2023/03/08 09:39:12;;;;;;;9.20;5.10;;;;;;;7.13;70.18;94601.60;106663;1254;25610;-68
2023/03/08 09:41:43;;;;;;;5.90;4.80;;;;;;;7.06;70.37;94608.40;106672;1274;24172;-67
2023/03/08 09:44:20;;;;;;;8.40;4.00;;;;;;;6.95;71.20;94609.34;106623;1274;22519;-67
2023/03/08 09:46:57;;;;;;;8.60;4.40;;;;;;;6.97;71.14;94613.30;106668;1274;22554;-67
2023/03/08 09:49:29;;;;;;;6.20;5.00;;;;;;;6.91;71.55;94612.55;106689;1274;25386;-68
2023/03/08 09:52:08;;;;;;;9.30;4.70;;;;;;;6.79;71.56;94620.31;106789;1274;22480;-67
2023/03/08 09:54:39;;;;;;;8.70;4.30;;;;;;;6.64;71.86;94615.36;106815;1274;24247;-67
2023/03/08 09:57:20;;;;;;;9.20;4.60;;;;;;;6.58;72.55;94615.30;106873;1274;23156;-68
2023/03/08 09:59:50;;;;;;;6.60;4.30;;;;;;;6.58;72.72;94615.31;106764;1274;22643;-68
2023/03/08 10:02:18;;;;;;;9.20;4.40;;;;;;;6.57;73.08;94615.14;106757;1274;25370;-68
2023/03/08 10:05:03;;;;;;;9.10;4.60;;;;;;;6.54;73.36;94623.58;107017;1274;22591;-66
2023/03/08 10:08:11;;;;;;;10.30;5.40;;;;;;;6.52;73.62;94621.00;107049;1274;22635;-67
2023/03/08 10:10:59;;;;;;;9.50;5.50;;;;;;;6.54;74.26;94615.02;106882;1274;25607;-67
2023/03/08 10:13:36;;;;;;;7.00;4.60;;;;;;;6.66;73.72;94619.87;107006;1274;24218;-65
2023/03/08 10:16:18;;;;;;;8.00;5.30;;;;;;;6.73;73.11;94622.54;106727;1274;24193;-67
2023/03/08 10:19:03;;;;;;;5.30;4.50;;;;;;;6.80;73.10;94622.39;106708;1274;22633;-67
2023/03/08 10:21:36;;;;;;;8.70;5.30;;;;;;;6.87;72.82;94616.99;106714;1274;24240;-67
2023/03/08 10:24:28;;;;;;;8.20;4.30;;;;;;;7.00;72.46;94615.35;106808;1274;24351;-67
2023/03/08 10:27:20;;;;;;;7.80;4.30;;;;;;;7.10;71.26;94614.27;106767;1274;25501;-67
2023/03/08 10:29:51;;;;;;;10.10;5.30;;;;;;;7.22;70.96;94614.02;106778;1274;23241;-68
2023/03/08 10:32:19;;;;;;;6.60;4.00;;;;;;;7.30;71.39;94616.98;106811;1274;22573;-67
2023/03/08 10:34:48;;;;;;;8.80;5.20;;;;;;;7.28;70.56;94619.12;106818;1274;25245;-67
2023/03/08 10:37:19;;;;;;;10.40;4.60;;;;;;;7.28;71.08;94612.14;106762;1274;22637;-68
2023/03/08 10:39:53;;;;;;;11.10;5.00;;;;;;;7.28;70.83;94611.97;106839;1274;24193;-68
2023/03/08 10:42:25;;;;;;;7.40;5.30;;;;;;;7.31;70.65;94611.20;106722;1274;22632;-67
2023/03/08 10:45:20;;;;;;;7.30;4.80;;;;;;;7.46;71.81;94611.22;106800;1274;22636;-68
2023/03/08 10:48:04;;;;;;;7.70;4.70;;;;;;;7.66;72.11;94609.52;106804;1274;23135;-67
2023/03/08 10:50:35;;;;;;;5.70;4.30;;;;;;;7.84;71.69;94605.80;106697;1274;24256;-68
2023/03/08 10:53:16;;;;;;;5.70;4.30;;;;;;;7.99;70.60;94604.38;106810;1274;22532;-67
2023/03/08 10:55:47;;;;;;;8.30;4.40;;;;;;;8.29;70.27;94597.14;106752;1274;24275;-68
2023/03/08 10:58:30;;;;;;;9.30;4.90;;;;;;;8.70;70.56;94594.70;106794;1274;22517;-68
2023/03/08 11:01:04;;;;;;;6.20;4.20;;;;;;;9.17;68.89;94585.64;106734;1274;22526;-67
2023/03/08 11:03:33;;;;;;;5.50;4.00;;;;;;;9.62;67.15;94575.15;107085;1274;25414;-68
2023/03/08 11:06:13;;;;;;;6.90;4.40;;;;;;;9.97;65.23;94564.03;106912;1274;24737;-68
2023/03/08 11:08:54;;;;;;;6.50;4.60;;;;;;;10.04;63.93;94566.09;106756;1274;24284;-68
2023/03/08 11:11:22;;;;;;;6.60;3.60;;;;;;;9.90;63.39;94561.81;107085;1274;24220;-67
2023/03/08 11:13:52;;;;;;;7.70;3.90;;;;;;;10.19;61.96;94554.52;107031;1274;22545;-67
2023/03/08 11:16:23;;;;;;;6.10;3.60;;;;;;;10.77;60.23;94545.84;106805;1274;22529;-68
2023/03/08 11:19:21;;;;;;;5.10;3.90;;;;;;;11.17;59.21;94544.38;106755;1275;23049;-68
2023/03/08 11:22:31;;;;;;;7.60;4.00;;;;;;;11.67;56.48;94534.52;106821;1274;24340;-68
2023/03/08 11:25:08;;;;;;;6.40;4.10;;;;;;;11.83;55.89;94525.61;106779;1274;22727;-68
2023/03/08 11:28:01;;;;;;;5.00;4.30;;;;;;;12.40;55.93;94519.20;106747;1274;22614;-68
2023/03/08 11:31:09;;;;;;;6.50;4.50;;;;;;;13.01;51.94;94520.73;106816;1273;22535;-68
2023/03/08 11:34:12;;;;;;;6.20;4.10;;;;;;;13.39;52.44;94517.29;106803;1274;22646;-66
2023/03/08 11:36:47;;;;;;;5.30;4.30;;;;;;;13.65;50.56;94512.02;107018;1274;25393;-67
2023/03/08 11:39:24;;;;;;;4.90;3.50;;;;;;;14.27;50.30;94503.81;107016;1274;25313;-68
2023/03/08 11:41:52;;;;;;;9.00;4.50;;;;;;;14.15;46.99;94502.32;106744;1269;24219;-66
2023/03/08 11:44:24;;;;;;;3.80;3.40;;;;;;;13.76;47.19;94502.97;106784;1274;25277;-67
2023/03/08 11:47:14;;;;;;;5.40;3.90;;;;;;;13.90;49.79;94504.25;106846;1274;22662;-66